Main page
METAR-TAF:

METAR-TAF

Airports :

Waterford Airport

Waterford, Ireland

latitude: 52-11-14N, longitude: 7-05-13W, elevation: 36 m

Current weather observation

The report was made 13 minutes ago, at 19:30 UTC
Wind 12 kt from the West/Northwest, varying between West and North
Temperature 15°C
Humidity 63%
Pressure 1008 hPa
Visibility 10 km or more
Few clouds at a height of 3000 ft

METAR: EIWF 281930Z 30012KT 270V360 9999 FEW030 15/08 Q1008

Time: 20:43 (19:43 UTC)

Forecast

The report was made 2 hours and 43 minutes ago, at 17:00 UTC
Forecast valid from 28 at 18 UTC to 29 at 03 UTC
Wind 12 kt from the West
Visibility 10 km or more
Scattered clouds at a height of 4500 ft
Temporary
from 28 at 18 UTC to 28 at 20 UTC
Few clouds at a height of 1800 ft, Cumulonimbus.
light rain showers

TAF: EIWF 281700Z 2818/2903 28012KT 9999 SCT045 TEMPO 2818/2820 -SHRA FEW018CB

Weather observations and forecasts of more than 4000 airports (METAR and TAF reports).

The available stations are represented by yellow and red dots on the map.

Hover mouse over dot to see the name of the station.

Then click to see weather observations and forecasts.

To change the map : click on the green buttons with a black cross to zoom in, on the green button with a dash to zoom out, or on the green arrows for adjacent maps.


METAR-TAF: